Time;durP1;ratioP1;P1;durP2;ratioP2;P2;SDS_P1;SDS_P2;PMS_P1;PMS_P2;Temp;Humidity;BMP_temperature;BMP_pressure;BME280_temperature;BME280_humidity;BME280_pressure;Samples;Min_cycle;Max_cycle;Signal;HPM_P1;HPM_P2
2022/12/13 00:02:00;;;;;;;23.17;12.67;;;0.40;77.70;;;0.81;51.06;98105.16;4963373;28;123521;-74
2022/12/13 00:04:26;;;;;;;17.70;10.23;;;0.40;77.80;;;0.79;51.71;98107.31;4972922;28;123789;-75
2022/12/13 00:06:53;;;;;;;23.43;11.50;;;0.40;77.80;;;0.79;51.21;98101.88;4970706;28;119476;-74
2022/12/13 00:09:20;;;;;;;23.03;12.90;;;0.40;77.80;;;0.80;51.45;98102.69;4950962;28;118583;-74
2022/12/13 00:11:48;;;;;;;23.97;12.00;;;0.40;77.80;;;0.76;51.04;98096.97;4928815;28;124315;-74
2022/12/13 00:14:15;;;;;;;21.80;12.50;;;0.40;77.90;;;0.75;51.22;98089.06;4956020;28;123754;-74
2022/12/13 00:16:45;;;;;;;22.67;12.23;;;0.30;77.90;;;0.73;51.80;98092.06;4966323;28;119583;-74
2022/12/13 00:19:13;;;;;;;23.37;12.20;;;0.40;78.10;;;0.71;51.26;98096.94;4951578;28;119061;-74
2022/12/13 00:21:40;;;;;;;21.00;12.57;;;0.30;78.10;;;0.70;51.17;98097.19;4949283;28;124088;-73
2022/12/13 00:24:07;;;;;;;24.03;12.53;;;0.30;78.10;;;0.68;51.93;98094.75;4966395;28;123818;-74
2022/12/13 00:26:34;;;;;;;25.53;13.27;;;0.30;78.10;;;0.68;51.58;98100.19;4965540;28;120253;-74
2022/12/13 00:29:04;;;;;;;20.50;12.27;;;0.30;78.20;;;0.65;51.62;98089.88;4965090;28;120009;-73
2022/12/13 00:31:31;;;;;;;30.00;13.10;;;0.20;78.20;;;0.64;52.23;98093.66;4947949;28;124380;-74
2022/12/13 00:34:00;;;;;;;26.83;13.20;;;0.20;78.30;;;0.65;52.05;98090.69;4965676;28;124369;-74
2022/12/13 00:36:27;;;;;;;24.80;12.70;;;0.20;78.40;;;0.66;51.98;98095.00;4934008;28;119517;-74
2022/12/13 00:38:59;;;;;;;26.10;12.57;;;0.30;78.50;;;0.69;51.46;98088.22;4967061;28;119584;-74
2022/12/13 00:41:33;;;;;;;26.00;12.23;;;0.30;78.60;;;0.74;51.58;98093.69;4965519;28;123964;-75
2022/12/13 00:44:01;;;;;;;30.80;11.67;;;0.30;78.60;;;0.74;51.34;98088.25;4966265;28;123916;-74
2022/12/13 00:46:28;;;;;;;22.63;11.50;;;0.30;78.50;;;0.76;51.51;98086.09;4934630;28;118371;-77
2022/12/13 00:48:58;;;;;;;24.10;11.97;;;0.40;78.60;;;0.77;51.71;98087.72;4968531;28;118818;-74
2022/12/13 00:51:27;;;;;;;20.87;12.03;;;0.40;78.50;;;0.79;51.33;98082.03;4928378;28;123247;-74
2022/12/13 00:53:54;;;;;;;22.57;12.23;;;-0.20;78.00;;;0.80;51.39;98078.22;4952344;28;123925;-74
2022/12/13 00:56:24;;;;;;;27.80;13.50;;;0.50;78.60;;;0.82;51.96;98067.91;4968213;28;119241;-73
2022/12/13 00:58:51;;;;;;;25.97;11.60;;;0.40;78.40;;;0.81;52.03;98056.22;4961361;28;119033;-74
2022/12/13 01:01:24;;;;;;;21.23;11.47;;;0.40;78.40;;;0.79;51.33;98058.38;4969444;28;123232;-73
2022/12/13 01:03:54;;;;;;;23.20;12.13;;;0.40;78.30;;;0.73;51.58;98054.00;4949018;28;123781;-73
2022/12/13 01:06:30;;;;;;;27.37;12.67;;;0.30;78.40;;;0.72;51.59;98057.78;4967683;28;119382;-74
2022/12/13 01:08:56;;;;;;;23.13;12.60;;;0.30;78.50;;;0.67;51.94;98052.34;4966171;28;118924;-74
2022/12/13 01:11:23;;;;;;;24.40;12.93;;;1.10;79.20;;;0.65;52.00;98049.91;4949449;28;122879;-74
2022/12/13 01:13:50;;;;;;;25.73;13.70;;;0.20;78.40;;;0.63;52.06;98053.97;4965403;28;123381;-75
2022/12/13 01:16:17;;;;;;;28.70;13.30;;;0.20;78.40;;;0.58;51.47;98045.78;4965662;28;120574;-75
2022/12/13 01:18:44;;;;;;;25.93;14.47;;;0.20;78.50;;;0.52;52.05;98052.31;4967496;28;119985;-75
2022/12/13 01:21:14;;;;;;;20.90;11.50;;;0.10;78.50;;;0.47;52.31;98052.28;4950582;28;123134;-74
2022/12/13 01:23:42;;;;;;;28.07;13.63;;;0.10;78.70;;;0.43;51.79;98054.69;4964778;28;123484;-75
2022/12/13 01:26:13;;;;;;;22.77;13.73;;;0.00;78.70;;;0.36;52.05;98062.28;4947773;28;120557;-75
2022/12/13 01:28:40;;;;;;;27.97;15.13;;;-0.10;78.70;;;0.25;52.64;98063.31;4967578;28;119856;-75
2022/12/13 01:31:11;;;;;;;25.10;14.87;;;0.00;79.00;;;0.16;52.47;98071.13;4968411;28;123957;-75
2022/12/13 01:33:40;;;;;;;24.00;13.50;;;-0.30;78.80;;;0.12;52.83;98064.59;4989300;28;96712;-74
2022/12/13 01:36:11;;;;;;;21.93;12.43;;;-0.30;79.00;;;0.11;52.27;98068.38;4969762;28;119247;-74
2022/12/13 01:38:37;;;;;;;32.77;14.80;;;-0.40;79.00;;;0.06;52.89;98061.03;4971141;28;117962;-74
2022/12/13 01:41:05;;;;;;;23.73;11.93;;;-0.40;79.10;;;0.01;52.67;98063.72;4969228;28;123502;-74
2022/12/13 01:43:41;;;;;;;25.33;13.03;;;0.00;79.50;;;-0.04;52.56;98059.06;4963789;28;124004;-74
2022/12/13 01:46:09;;;;;;;24.33;13.23;;;-0.50;79.10;;;-0.10;52.72;98062.84;4965704;28;119182;-74
2022/12/13 01:48:49;;;;;;;24.43;13.13;;;-0.50;79.20;;;-0.11;53.11;98061.22;4963980;28;119283;-74
2022/12/13 01:51:20;;;;;;;21.97;12.70;;;-0.60;79.20;;;-0.14;52.75;98059.00;4965132;28;123910;-74
2022/12/13 01:53:48;;;;;;;23.90;12.90;;;-0.60;79.30;;;-0.17;52.24;98056.81;4949240;28;121397;-73
2022/12/13 01:56:26;;;;;;;25.40;12.77;;;-0.60;79.40;;;-0.19;53.49;98053.53;4943071;28;119031;-74
2022/12/13 01:58:54;;;;;;;30.17;14.40;;;-0.60;79.40;;;-0.23;52.71;98052.41;4965525;28;119038;-74
2022/12/13 02:01:24;;;;;;;22.87;13.77;;;-0.60;79.70;;;-0.30;53.19;98052.63;4942087;28;123724;-74
2022/12/13 02:03:50;;;;;;;25.13;14.00;;;-0.80;79.50;;;-0.37;53.12;98053.97;4939759;28;123776;-74
2022/12/13 02:06:36;;;;;;;26.63;13.53;;;-0.80;79.80;;;-0.36;53.17;98044.72;4961460;28;120200;-74
2022/12/13 02:09:05;;;;;;;22.80;12.40;;;-0.80;79.90;;;-0.41;53.58;98055.53;4961448;28;119403;-73
2022/12/13 02:11:38;;;;;;;28.13;14.33;;;-0.90;79.90;;;-0.42;53.41;98043.88;4937435;28;124496;-74
2022/12/13 02:14:04;;;;;;;24.50;12.33;;;-0.90;80.00;;;-0.43;53.60;98046.84;4949144;28;124450;-73
2022/12/13 02:17:00;;;;;;;22.57;12.67;;;-0.90;80.00;;;-0.42;53.10;98043.06;4936756;28;118855;-73
2022/12/13 02:20:21;;;;;;;34.03;14.80;;;-0.90;80.00;;;-0.45;53.61;98037.06;4923636;28;117909;-73
2022/12/13 02:23:23;;;;;;;25.20;15.00;;;-0.90;80.10;;;-0.53;53.59;98032.13;4942511;28;124464;-74
2022/12/13 02:26:53;;;;;;;23.67;14.37;;;-1.00;80.10;;;-0.57;53.16;98028.28;4950447;28;123170;-74
2022/12/13 02:29:49;;;;;;;26.97;14.80;;;-1.00;80.20;;;-0.65;53.96;98028.75;4944438;28;119512;-74
2022/12/13 02:32:40;;;;;;;22.87;13.13;;;-1.10;80.20;;;-0.72;53.46;98028.19;4961531;28;119032;-74
2022/12/13 02:35:16;;;;;;;29.87;14.93;;;-1.20;80.30;;;-0.81;54.02;98033.22;4933710;28;123871;-74
2022/12/13 02:38:21;;;;;;;29.43;13.20;;;-1.20;80.50;;;-0.80;54.03;98036.78;4941383;28;123669;-74
2022/12/13 02:40:59;;;;;;;27.00;14.53;;;-1.20;80.70;;;-0.80;54.29;98044.91;4952427;28;119332;-73
2022/12/13 02:43:34;;;;;;;28.20;14.50;;;-1.20;80.70;;;-0.77;54.49;98031.66;4951055;28;118988;-74
2022/12/13 02:46:02;;;;;;;22.43;12.13;;;-1.20;80.80;;;-0.75;54.19;98028.69;4957156;28;123926;-74
2022/12/13 02:48:36;;;;;;;23.73;14.00;;;-1.20;80.70;;;-0.68;54.13;98024.66;4920731;28;122053;-74
2022/12/13 02:51:04;;;;;;;24.43;13.33;;;-1.10;80.80;;;-0.68;54.44;98023.84;4935141;28;118491;-74
2022/12/13 02:53:32;;;;;;;23.77;12.20;;;-1.10;80.80;;;-0.65;54.24;98027.94;4939647;28;117866;-74
2022/12/13 02:55:58;;;;;;;25.60;13.20;;;-1.10;80.80;;;-0.64;54.04;98041.25;4961475;28;124042;-74
2022/12/13 02:58:32;;;;;;;24.67;13.63;;;-0.70;81.00;;;-0.60;53.82;98036.94;4952322;28;123634;-74
2022/12/13 03:01:33;;;;;;;28.17;15.40;;;-1.00;80.80;;;-0.58;53.41;98032.06;4948536;28;119074;-74
2022/12/13 03:08:00;;;;;;;24.43;12.07;;;-1.00;80.70;;;-0.57;54.40;98024.75;4932551;28;124557;-75
2022/12/13 03:10:45;;;;;;;21.40;11.50;;;0.90;82.50;;;-0.54;54.04;98025.06;4934077;28;124145;-74
2022/12/13 03:13:37;;;;;;;23.60;12.37;;;-0.90;80.90;;;-0.49;53.81;98010.72;4944171;28;119433;-74
2022/12/13 03:16:38;;;;;;;26.43;14.33;;;-0.70;80.90;;;-0.47;53.46;98003.13;4932613;28;118711;-74
2022/12/13 03:19:09;;;;;;;24.07;12.00;;;-0.90;80.60;;;-0.53;54.04;98005.00;4947240;28;124122;-74
2022/12/13 03:21:40;;;;;;;25.70;13.40;;;-0.90;80.60;;;-0.50;54.55;97993.63;4930103;28;123646;-74
2022/12/13 03:24:06;;;;;;;22.47;13.10;;;-0.90;80.60;;;-0.50;53.48;97990.09;4930333;28;119383;-74
2022/12/13 03:26:33;;;;;;;22.50;13.97;;;-0.90;80.70;;;-0.51;54.25;97986.56;4946773;28;118959;-74
2022/12/13 03:29:00;;;;;;;27.30;14.30;;;-0.90;80.60;;;-0.56;54.03;97994.66;4931686;28;122953;-74
2022/12/13 03:31:27;;;;;;;27.23;14.40;;;-1.00;80.40;;;-0.65;54.11;98001.63;4947041;28;123762;-74
2022/12/13 03:33:54;;;;;;;27.50;13.73;;;-1.00;80.30;;;-0.69;53.99;97993.22;4930219;28;119094;-74
2022/12/13 03:36:20;;;;;;;26.10;13.17;;;-1.10;80.40;;;-0.72;54.26;97998.34;4947206;28;119082;-74
2022/12/13 03:38:49;;;;;;;17.47;10.60;;;0.00;81.40;;;-0.76;53.35;97995.31;4929515;28;123956;-74
2022/12/13 03:41:20;;;;;;;20.07;11.23;;;-1.20;80.50;;;-0.76;54.28;97999.91;4962273;28;122956;-74
2022/12/13 03:43:46;;;;;;;25.70;12.93;;;-1.20;80.60;;;-0.75;54.24;97993.44;4927546;28;118420;-74
2022/12/13 03:46:13;;;;;;;20.70;11.73;;;-1.20;80.60;;;-0.73;53.36;97989.38;4952749;28;118941;-74
2022/12/13 03:48:40;;;;;;;22.27;11.60;;;-1.10;80.60;;;-0.69;53.92;97997.81;4947211;28;125002;-74
2022/12/13 03:51:06;;;;;;;23.37;12.03;;;-1.10;80.60;;;-0.68;53.73;97994.84;4948193;28;123861;-75
2022/12/13 03:53:33;;;;;;;23.53;12.33;;;-1.10;80.50;;;-0.65;53.22;97988.06;4969589;28;120249;-75
2022/12/13 03:56:05;;;;;;;21.90;11.33;;;-1.10;81.10;;;-0.61;53.75;97991.09;4957831;28;119076;-75
2022/12/13 03:58:33;;;;;;;21.00;12.07;;;-1.00;80.50;;;-0.62;53.08;97989.44;4957600;28;124316;-75
2022/12/13 04:01:00;;;;;;;22.73;12.13;;;-1.00;80.40;;;-0.60;53.57;97977.25;4932650;28;123015;-75
2022/12/13 04:03:26;;;;;;;25.80;14.03;;;-1.00;80.40;;;-0.59;53.92;97987.06;4950751;28;119131;-75
2022/12/13 04:05:53;;;;;;;27.70;13.93;;;-0.40;80.90;;;-0.59;53.45;97978.06;4951626;28;118807;-75
2022/12/13 04:08:19;;;;;;;26.40;13.80;;;-1.10;80.30;;;-0.64;53.47;97975.34;4941230;28;123197;-74
2022/12/13 04:10:47;;;;;;;21.90;12.40;;;-1.10;80.30;;;-0.66;53.79;97983.72;4966459;28;123753;-74
2022/12/13 04:13:32;;;;;;;20.60;11.70;;;-1.10;80.40;;;-0.67;53.36;97976.69;4955775;28;119497;-74
2022/12/13 04:15:59;;;;;;;20.90;11.73;;;-1.10;80.50;;;-0.65;53.69;97979.94;4946720;28;118788;-74
2022/12/13 04:18:26;;;;;;;21.83;12.57;;;-1.10;80.50;;;-0.64;53.52;97978.88;4953428;28;124034;-74
2022/12/13 04:20:53;;;;;;;25.30;12.83;;;-1.00;80.50;;;-0.61;53.55;97977.53;4952165;28;123746;-74
2022/12/13 04:23:19;;;;;;;18.27;11.30;;;-1.00;80.40;;;-0.60;53.45;97977.25;4949249;28;119564;-74
2022/12/13 04:25:46;;;;;;;23.07;11.87;;;-1.00;81.00;;;-0.58;53.73;97977.81;4964929;28;118249;-74
2022/12/13 04:28:12;;;;;;;26.40;12.77;;;-1.00;80.30;;;-0.57;53.41;97982.16;4958310;28;124319;-74
2022/12/13 04:30:39;;;;;;;28.80;13.67;;;-1.00;80.30;;;-0.56;53.55;97986.53;4949143;28;123956;-74
2022/12/13 04:33:05;;;;;;;25.43;12.00;;;-1.00;80.20;;;-0.56;53.17;97983.00;4968060;28;119848;-74
2022/12/13 04:35:32;;;;;;;24.03;12.47;;;-1.00;80.20;;;-0.55;53.06;97979.19;4965519;28;119018;-74
2022/12/13 04:37:58;;;;;;;26.73;13.10;;;-1.00;80.10;;;-0.56;53.47;97977.56;4951030;28;125234;-75
2022/12/13 04:40:25;;;;;;;21.30;11.13;;;-0.40;80.60;;;-0.56;52.86;97978.38;4948342;28;123673;-75
2022/12/13 04:42:53;;;;;;;21.17;11.23;;;-1.00;80.00;;;-0.57;53.60;97982.16;4964779;28;120178;-75
2022/12/13 04:45:21;;;;;;;22.03;11.50;;;-1.00;80.00;;;-0.57;52.64;97975.91;4959585;28;120167;-75
2022/12/13 04:47:47;;;;;;;21.20;12.50;;;-1.00;79.90;;;-0.57;53.60;97975.91;4953849;28;124129;-74
2022/12/13 04:50:14;;;;;;;22.20;13.00;;;-0.90;80.00;;;-0.57;53.41;97984.88;4960978;28;123776;-75
2022/12/13 04:52:41;;;;;;;26.70;13.30;;;-0.90;79.90;;;-0.58;53.44;97980.53;4960202;28;119240;-75
2022/12/13 04:55:08;;;;;;;25.47;12.73;;;-1.00;79.80;;;-0.57;53.63;97974.03;4962696;28;118854;-75
2022/12/13 04:57:34;;;;;;;25.70;12.50;;;-1.00;79.80;;;-0.59;53.38;97968.06;4940189;28;123928;-75
2022/12/13 05:00:04;;;;;;;25.50;13.50;;;-1.00;79.80;;;-0.58;52.82;97974.31;4952860;28;123955;-75
2022/12/13 05:02:30;;;;;;;20.57;12.10;;;-1.00;79.80;;;-0.59;53.13;97976.19;4960516;28;119850;-75
2022/12/13 05:04:57;;;;;;;23.70;12.70;;;-1.00;79.70;;;-0.60;52.95;97971.84;4954869;28;119118;-75
2022/12/13 05:07:42;;;;;;;22.30;11.97;;;-1.00;79.80;;;-0.59;52.79;97965.34;4940938;28;124999;-75
2022/12/13 05:10:11;;;;;;;28.20;14.57;;;-1.00;79.80;;;-0.67;53.12;97972.06;4935345;28;122788;-74
2022/12/13 05:12:38;;;;;;;27.30;14.20;;;-1.10;79.80;;;-0.72;53.23;97965.78;4953050;28;118440;-74
2022/12/13 05:15:06;;;;;;;20.40;11.67;;;-1.10;79.90;;;-0.76;53.52;97970.91;4960523;28;118193;-76
2022/12/13 05:17:33;;;;;;;23.57;11.73;;;-1.20;79.90;;;-0.78;53.75;97964.94;4939528;28;123572;-74
2022/12/13 05:19:59;;;;;;;26.50;14.03;;;-1.20;79.90;;;-0.78;53.49;97969.53;4935697;28;122695;-74
2022/12/13 05:22:26;;;;;;;22.53;10.87;;;-1.20;79.90;;;-0.81;53.08;97965.44;4958086;28;119279;-74
2022/12/13 05:24:52;;;;;;;22.07;11.90;;;-1.20;80.00;;;-0.80;53.27;97972.50;4944806;28;118030;-74
2022/12/13 05:27:19;;;;;;;24.83;13.57;;;-1.20;80.10;;;-0.79;52.93;97968.72;4956874;28;124829;-74
2022/12/13 05:29:45;;;;;;;24.87;12.27;;;-1.20;80.10;;;-0.79;52.86;97962.47;4946869;28;123285;-74
2022/12/13 05:32:12;;;;;;;22.80;12.30;;;0.80;81.90;;;-0.80;53.07;97958.13;4958533;28;120261;-74
2022/12/13 05:34:38;;;;;;;24.97;12.30;;;-1.20;80.10;;;-0.81;53.73;97962.72;4953111;28;120483;-74
2022/12/13 05:37:05;;;;;;;20.30;12.40;;;-1.30;80.00;;;-0.81;53.70;97964.63;4958238;28;123909;-74
2022/12/13 05:39:31;;;;;;;23.53;12.03;;;-1.30;80.10;;;-0.81;52.89;97961.91;4955113;28;123748;-73
2022/12/13 05:41:58;;;;;;;23.50;12.03;;;-1.30;80.10;;;-0.80;52.89;97955.44;4949701;28;119373;-74
2022/12/13 05:44:26;;;;;;;24.90;12.10;;;-0.10;81.10;;;-0.80;53.64;97960.84;4950084;28;119023;-74
2022/12/13 05:46:54;;;;;;;17.90;10.73;;;-1.20;80.10;;;-0.79;53.51;97957.88;4945312;28;124490;-74
2022/12/13 05:49:20;;;;;;;20.23;11.70;;;-1.30;80.00;;;-0.77;52.82;97955.72;4947887;28;123891;-74
2022/12/13 05:51:47;;;;;;;28.33;12.77;;;-1.20;80.10;;;-0.76;53.35;97951.91;4948110;28;119300;-74
2022/12/13 05:54:13;;;;;;;22.90;10.90;;;-1.20;80.00;;;-0.76;53.45;97956.53;4930805;28;119271;-74
2022/12/13 05:56:40;;;;;;;21.97;11.37;;;-0.80;80.20;;;-0.81;53.20;97948.34;4947109;28;124567;-74
2022/12/13 05:59:06;;;;;;;24.00;12.43;;;-1.30;79.70;;;-0.84;52.86;97946.16;4946512;28;124330;-75
2022/12/13 06:01:33;;;;;;;26.23;12.30;;;-1.20;79.90;;;-0.83;53.50;97942.38;4950499;28;119080;-75
2022/12/13 06:11:23;;;;;;;22.50;11.20;;;-1.40;79.70;;;-0.96;53.47;97947.16;4951874;28;124771;-76
2022/12/13 06:13:51;;;;;;;20.07;11.17;;;-1.10;80.00;;;-0.97;53.00;97950.13;4936979;28;120541;-75
2022/12/13 06:16:18;;;;;;;16.43;9.47;;;-1.30;79.80;;;-0.97;53.52;97945.53;4933774;28;119268;-75
2022/12/13 06:18:44;;;;;;;21.50;11.80;;;-0.20;81.50;;;-0.99;53.42;97950.41;4931895;28;124245;-75
2022/12/13 06:21:11;;;;;;;22.57;12.57;;;-1.40;79.70;;;-0.97;52.96;97955.53;4948533;28;122897;-74
2022/12/13 06:23:37;;;;;;;25.40;12.43;;;-1.40;79.70;;;-0.98;53.63;97960.16;4942762;28;120203;-75
2022/12/13 06:26:06;;;;;;;19.97;11.30;;;-0.40;80.60;;;-1.00;53.14;97950.66;4944034;28;118970;-75
2022/12/13 06:28:32;;;;;;;21.73;11.67;;;-1.40;79.70;;;-0.98;54.52;97952.03;4948500;28;124133;-75
2022/12/13 06:31:01;;;;;;;24.53;11.07;;;-1.40;81.30;;;-0.82;56.03;97952.16;4904855;28;123240;-75
2022/12/13 06:33:27;;;;;;;21.43;12.60;;;-1.30;82.90;;;-0.73;55.67;97942.44;4947470;28;119432;-74
2022/12/13 06:35:57;;;;;;;25.93;12.23;;;-1.20;83.00;;;-0.66;56.60;97934.91;4936909;28;118939;-73
2022/12/13 06:38:24;;;;;;;24.43;12.33;;;-1.20;85.30;;;-0.60;56.69;97942.00;4930485;28;123889;-73
2022/12/13 06:40:51;;;;;;;21.53;12.17;;;-1.20;85.10;;;-0.53;57.46;97948.03;4940462;28;123808;-71
2022/12/13 06:43:19;;;;;;;22.33;11.63;;;-1.10;86.50;;;-0.43;57.41;97949.16;4921696;28;118339;-72
2022/12/13 06:45:46;;;;;;;24.73;12.13;;;-1.00;87.40;;;-0.30;58.36;97941.34;4950186;28;118734;-71
2022/12/13 06:48:13;;;;;;;22.40;12.20;;;0.10;90.00;;;-0.18;58.90;97940.34;4931996;28;124002;-75
2022/12/13 06:50:39;;;;;;;20.50;10.80;;;-0.80;88.70;;;-0.11;57.70;97940.91;4948997;28;123731;-75
2022/12/13 06:53:06;;;;;;;22.87;12.33;;;-0.80;87.50;;;-0.12;56.18;97961.00;4949880;28;119099;-73
2022/12/13 06:55:34;;;;;;;21.27;12.47;;;-0.70;86.10;;;-0.17;55.74;97959.06;4932184;28;119022;-74
2022/12/13 06:58:00;;;;;;;25.70;12.43;;;-0.80;85.10;;;-0.26;55.21;97961.47;4950882;28;123959;-74
2022/12/13 07:00:27;;;;;;;26.73;13.50;;;-0.80;83.80;;;-0.36;54.75;97960.59;4952305;28;122884;-75
2022/12/13 07:02:54;;;;;;;29.83;14.00;;;-0.90;82.90;;;-0.44;54.83;97964.63;4952373;28;119325;-74
2022/12/13 07:05:21;;;;;;;27.17;14.10;;;-1.00;82.50;;;-0.55;53.88;97971.88;4935386;28;120550;-74
2022/12/13 07:07:47;;;;;;;24.83;12.47;;;-1.10;81.80;;;-0.67;53.96;97971.25;4930068;28;123906;-75
2022/12/13 07:10:14;;;;;;;24.77;13.30;;;-1.20;81.70;;;-0.76;54.19;97967.38;4930986;28;122979;-74
2022/12/13 07:12:41;;;;;;;22.10;11.80;;;-1.30;81.50;;;-0.83;54.16;97967.59;4945433;28;120400;-74
2022/12/13 07:15:09;;;;;;;19.20;10.90;;;-1.30;81.60;;;-0.80;54.14;97977.13;4947079;28;120047;-74
2022/12/13 07:17:35;;;;;;;22.30;12.50;;;-1.30;82.40;;;-0.80;54.11;97977.94;4929697;28;123073;-74
2022/12/13 07:20:10;;;;;;;30.83;13.70;;;-1.30;82.10;;;-0.83;54.39;97981.16;4931856;28;122885;-73
2022/12/13 07:22:37;;;;;;;18.57;10.33;;;-1.30;81.70;;;-0.91;54.03;97979.75;4948469;28;119395;-73
2022/12/13 07:25:04;;;;;;;19.23;10.63;;;-1.40;81.50;;;-0.90;53.49;97977.84;4946511;28;119283;-74
2022/12/13 07:27:31;;;;;;;19.70;11.83;;;-1.40;81.50;;;-0.91;53.69;97973.50;4929299;28;123646;-74
2022/12/13 07:30:18;;;;;;;21.73;11.73;;;-1.30;81.50;;;-0.92;54.04;97972.66;4922183;28;123599;-75
2022/12/13 07:32:44;;;;;;;28.47;12.23;;;-1.40;81.30;;;-0.94;54.41;97972.13;4889993;28;119008;-75
2022/12/13 07:35:11;;;;;;;26.53;11.47;;;-1.40;81.40;;;-0.87;55.02;97971.91;4893068;28;118496;-77
2022/12/13 07:37:37;;;;;;;22.47;10.20;;;-1.30;82.30;;;-0.83;54.83;97978.47;4881646;28;123140;-79
2022/12/13 07:40:06;;;;;;;30.03;13.77;;;-1.30;82.20;;;-0.84;54.52;97976.81;4905439;28;122821;-75
2022/12/13 07:42:33;;;;;;;26.13;12.27;;;-1.40;81.80;;;-0.82;54.11;97979.28;4908283;28;118560;-74
2022/12/13 07:44:59;;;;;;;29.43;12.83;;;-1.30;81.80;;;-0.82;54.26;97984.69;4910230;28;119009;-75
2022/12/13 07:47:30;;;;;;;25.73;13.00;;;-1.30;81.50;;;-0.81;54.23;97986.31;4906026;28;123710;-74
2022/12/13 07:49:57;;;;;;;28.47;13.10;;;-1.30;81.30;;;-0.88;53.72;98002.00;4874455;28;123930;-74
2022/12/13 07:52:24;;;;;;;25.60;11.73;;;-1.40;80.90;;;-0.94;53.48;98001.97;4879216;28;119227;-76
2022/12/13 07:54:50;;;;;;;25.80;13.80;;;-1.40;81.00;;;-0.93;54.00;98000.88;4861824;28;118910;-76
2022/12/13 07:57:17;;;;;;;25.17;12.77;;;-1.40;81.10;;;-0.90;55.07;98000.34;4870752;28;123017;-76
2022/12/13 07:59:43;;;;;;;24.57;12.70;;;-0.80;82.80;;;-0.85;55.14;98007.72;4893090;28;124065;-75
2022/12/13 08:02:12;;;;;;;31.27;14.07;;;-1.40;83.00;;;-0.78;55.48;98008.34;4887006;28;119921;-76
2022/12/13 08:04:38;;;;;;;27.13;12.07;;;-1.30;83.10;;;-0.74;54.71;98005.91;4894604;28;119840;-75
2022/12/13 08:07:10;;;;;;;29.87;11.53;;;-1.30;83.10;;;-0.69;54.61;98005.97;4884390;28;123984;-75
2022/12/13 08:09:37;;;;;;;21.00;11.90;;;-1.20;82.60;;;-0.66;54.34;98005.44;4920350;28;123369;-77
2022/12/13 08:12:04;;;;;;;21.30;11.40;;;-1.20;82.30;;;-0.66;53.79;97994.59;4963492;28;119021;-76
2022/12/13 08:14:31;;;;;;;26.73;13.33;;;-1.20;82.60;;;-0.65;53.89;98001.63;4961858;28;117938;-82
2022/12/13 08:17:01;;;;;;;19.20;11.20;;;-1.10;81.50;;;-0.65;53.58;98009.78;4964774;28;123864;-75
2022/12/13 08:19:28;;;;;;;23.13;11.63;;;-1.10;81.50;;;-0.66;54.33;98000.00;4966871;28;123214;-75
2022/12/13 08:21:55;;;;;;;21.70;11.77;;;-1.10;82.00;;;-0.64;54.23;98008.72;4946760;28;118775;-76
2022/12/13 08:24:24;;;;;;;22.60;11.67;;;-1.10;82.50;;;-0.59;54.71;98002.47;4923951;28;125719;-75
2022/12/13 08:26:50;;;;;;;25.90;12.10;;;-1.10;82.70;;;-0.54;54.98;98011.50;4963876;28;124445;-75
2022/12/13 08:29:17;;;;;;;22.73;11.63;;;-1.10;82.90;;;-0.47;55.18;98003.13;4964003;28;123707;-74
2022/12/13 08:31:44;;;;;;;19.20;11.63;;;-1.00;83.00;;;-0.45;54.79;98011.84;4964073;28;120011;-73
2022/12/13 08:34:10;;;;;;;24.33;13.00;;;-1.00;82.50;;;-0.41;54.32;98006.69;4948476;28;118986;-75
2022/12/13 08:36:37;;;;;;;26.00;12.60;;;-0.90;82.80;;;-0.38;54.15;98001.56;4967084;28;124439;-74
2022/12/13 08:39:03;;;;;;;28.33;12.93;;;-0.90;82.50;;;-0.36;54.64;98004.84;4970091;28;123811;-73
2022/12/13 08:41:30;;;;;;;27.83;11.80;;;-0.90;82.40;;;-0.31;53.83;98001.34;4963683;28;118893;-74
2022/12/13 08:43:57;;;;;;;20.50;12.13;;;-0.80;82.30;;;-0.29;54.09;98005.44;4934176;28;118107;-74
2022/12/13 08:46:23;;;;;;;18.93;11.13;;;-0.80;82.10;;;-0.29;54.24;98001.91;4979028;28;123981;-73
2022/12/13 08:48:53;;;;;;;19.70;10.73;;;-1.50;81.20;;;-0.27;53.76;98007.88;4965683;28;123780;-74
2022/12/13 08:51:23;;;;;;;23.47;13.03;;;-0.80;81.70;;;-0.23;53.59;98012.53;4918597;28;119248;-75
2022/12/13 08:53:51;;;;;;;28.53;11.80;;;-0.70;81.50;;;-0.23;53.51;98011.72;4952850;28;118376;-76
2022/12/13 08:56:17;;;;;;;21.60;11.50;;;-0.70;81.20;;;-0.21;53.44;98016.88;4967936;28;124129;-78
2022/12/13 08:58:49;;;;;;;24.27;12.33;;;-0.70;81.00;;;-0.23;52.56;98014.41;4977865;28;123774;-78
2022/12/13 09:01:16;;;;;;;25.87;13.37;;;-0.60;80.40;;;-0.33;52.15;98008.91;4942532;28;118580;-73
2022/12/13 09:03:43;;;;;;;20.80;11.60;;;-0.90;79.70;;;-0.32;54.73;98005.16;4952191;28;118943;-72
2022/12/13 09:06:13;;;;;;;18.70;9.80;;;-0.90;82.70;;;-0.08;56.56;98011.81;4933836;28;122722;-76
2022/12/13 09:08:41;;;;;;;28.43;12.37;;;-0.70;85.30;;;0.23;57.13;97998.38;4943361;28;123255;-72
2022/12/13 09:11:10;;;;;;;20.67;10.90;;;-0.50;87.40;;;0.41;56.31;97995.19;4924820;28;118373;-72
2022/12/13 09:13:38;;;;;;;18.60;10.47;;;-0.40;86.60;;;0.41;54.63;98000.63;4935081;28;118216;-72
2022/12/13 09:16:10;;;;;;;23.50;12.20;;;-0.30;85.10;;;0.39;54.37;97997.34;4961917;28;122808;-75
2022/12/13 09:18:37;;;;;;;17.97;9.37;;;-0.30;84.20;;;0.38;54.38;97990.28;4947019;28;123159;-72
2022/12/13 09:21:10;;;;;;;20.50;10.93;;;-0.30;83.50;;;0.39;54.27;97986.47;4928297;28;119463;-75
2022/12/13 09:23:38;;;;;;;22.43;12.30;;;-0.20;82.90;;;0.39;53.38;97983.75;4950595;28;119170;-79
2022/12/13 09:26:04;;;;;;;17.80;9.57;;;-0.20;82.40;;;0.41;53.47;97992.47;4928457;28;123821;-76
2022/12/13 09:28:31;;;;;;;23.60;12.10;;;-0.10;82.10;;;0.44;53.05;97991.13;4930743;28;124054;-73
2022/12/13 09:30:57;;;;;;;23.80;10.67;;;-0.10;81.30;;;0.42;52.34;97988.66;4949068;28;119354;-75
2022/12/13 09:33:24;;;;;;;19.10;10.60;;;-0.10;80.90;;;0.44;52.33;97989.22;4948499;28;119403;-74
2022/12/13 09:35:51;;;;;;;21.37;11.43;;;-0.10;80.90;;;0.43;52.08;97987.59;4931500;28;123852;-73
2022/12/13 09:38:19;;;;;;;22.93;11.57;;;-0.10;80.50;;;0.43;52.37;97992.19;4924086;28;123521;-74
2022/12/13 09:40:49;;;;;;;18.27;10.70;;;-0.10;80.40;;;0.45;52.20;97979.16;4948118;28;120176;-74
2022/12/13 09:43:26;;;;;;;21.70;11.67;;;-0.10;80.50;;;0.51;51.29;97991.69;4924185;28;120283;-73
2022/12/13 09:45:53;;;;;;;23.27;11.70;;;-0.10;80.00;;;0.51;51.92;97997.13;4945485;28;123670;-76
2022/12/13 09:48:22;;;;;;;24.90;11.87;;;0.00;80.00;;;0.52;51.16;98008.81;4932562;28;124379;-74
2022/12/13 09:50:49;;;;;;;19.37;12.20;;;0.00;79.50;;;0.53;50.92;98002.28;4949451;28;119221;-75
2022/12/13 09:53:18;;;;;;;19.07;11.50;;;0.00;79.30;;;0.52;50.15;98000.66;4947229;28;117816;-75
2022/12/13 09:55:48;;;;;;;20.30;10.87;;;-0.10;77.90;;;0.42;50.79;97996.81;4951080;28;124035;-75
2022/12/13 09:58:28;;;;;;;25.60;11.10;;;-0.20;77.90;;;0.42;50.48;97996.00;4946259;28;123045;-76
2022/12/13 10:00:56;;;;;;;22.63;11.10;;;-0.20;77.80;;;0.38;50.56;97986.75;4929890;28;118153;-75
2022/12/13 10:03:25;;;;;;;17.90;10.07;;;-0.10;78.30;;;0.44;50.57;97991.13;4948737;28;119121;-77
2022/12/13 10:06:10;;;;;;;16.87;9.40;;;-0.10;78.40;;;0.53;50.73;97985.97;4944890;28;123939;-77
2022/12/13 10:08:51;;;;;;;15.70;8.93;;;0.00;78.30;;;0.59;49.87;97987.63;4948909;28;123917;-74
2022/12/13 10:11:20;;;;;;;24.30;11.27;;;0.00;78.00;;;0.59;50.23;97987.63;4939268;28;119389;-74
2022/12/13 10:14:08;;;;;;;20.43;10.50;;;0.00;77.30;;;0.60;49.64;97975.69;4897201;28;117970;-75
2022/12/13 10:16:35;;;;;;;24.63;10.83;;;0.00;77.60;;;0.51;49.68;97967.25;4910901;28;123986;-76
2022/12/13 10:19:23;;;;;;;19.77;10.20;;;-0.10;76.60;;;0.54;49.39;97968.56;4916397;28;124234;-76
2022/12/13 10:21:50;;;;;;;21.50;10.00;;;0.00;77.10;;;0.55;50.01;97973.75;4919783;28;119196;-76
2022/12/13 10:24:32;;;;;;;19.87;10.00;;;0.00;77.10;;;0.63;49.39;97981.38;4920652;28;119028;-75
2022/12/13 10:27:41;;;;;;;18.63;9.37;;;0.00;76.60;;;0.68;49.53;97963.47;4919041;28;123340;-76